sensor_id;sensor_type;location;lat;lon;timestamp;pressure;altitude;pressure_sealevel;temperature;humidity
18533;BME280;9396;51.510;11.934;2023-04-26T00:02:15;100504.16;;;7.07;84.88
18533;BME280;9396;51.510;11.934;2023-04-26T00:04:42;100509.59;;;7.05;85.09
18533;BME280;9396;51.510;11.934;2023-04-26T00:07:10;100503.00;;;7.00;85.09
18533;BME280;9396;51.510;11.934;2023-04-26T00:09:41;100502.56;;;6.95;84.44
18533;BME280;9396;51.510;11.934;2023-04-26T00:12:09;100504.13;;;6.97;84.96
18533;BME280;9396;51.510;11.934;2023-04-26T00:14:36;100509.78;;;6.93;85.07
18533;BME280;9396;51.510;11.934;2023-04-26T00:17:03;100512.19;;;6.64;84.79
18533;BME280;9396;51.510;11.934;2023-04-26T00:19:30;100517.97;;;6.26;85.73
18533;BME280;9396;51.510;11.934;2023-04-26T00:21:57;100519.97;;;6.34;86.69
18533;BME280;9396;51.510;11.934;2023-04-26T00:24:23;100522.09;;;6.51;85.75
18533;BME280;9396;51.510;11.934;2023-04-26T00:26:53;100520.47;;;6.71;85.47
18533;BME280;9396;51.510;11.934;2023-04-26T00:29:20;100527.75;;;6.78;84.32
18533;BME280;9396;51.510;11.934;2023-04-26T00:31:47;100522.84;;;6.74;85.76
18533;BME280;9396;51.510;11.934;2023-04-26T00:34:14;100523.16;;;6.60;85.72
18533;BME280;9396;51.510;11.934;2023-04-26T00:36:40;100525.66;;;6.61;84.97
18533;BME280;9396;51.510;11.934;2023-04-26T00:39:07;100525.41;;;6.21;85.00
18533;BME280;9396;51.510;11.934;2023-04-26T00:41:34;100528.56;;;6.15;86.59
18533;BME280;9396;51.510;11.934;2023-04-26T00:44:02;100526.41;;;6.09;86.29
18533;BME280;9396;51.510;11.934;2023-04-26T00:46:29;100528.78;;;6.12;85.85
18533;BME280;9396;51.510;11.934;2023-04-26T00:48:56;100536.00;;;6.10;86.70
18533;BME280;9396;51.510;11.934;2023-04-26T00:51:23;100533.84;;;6.15;85.96
18533;BME280;9396;51.510;11.934;2023-04-26T00:53:51;100532.63;;;6.19;86.21
18533;BME280;9396;51.510;11.934;2023-04-26T00:56:17;100536.59;;;6.14;86.32
18533;BME280;9396;51.510;11.934;2023-04-26T00:58:45;100526.88;;;6.14;86.68
18533;BME280;9396;51.510;11.934;2023-04-26T01:01:13;100538.59;;;6.21;86.08
18533;BME280;9396;51.510;11.934;2023-04-26T01:03:39;100539.34;;;6.23;86.73
18533;BME280;9396;51.510;11.934;2023-04-26T01:06:08;100539.78;;;6.28;85.89
18533;BME280;9396;51.510;11.934;2023-04-26T01:08:35;100535.38;;;6.18;85.78
18533;BME280;9396;51.510;11.934;2023-04-26T01:11:03;100542.69;;;5.70;87.18
18533;BME280;9396;51.510;11.934;2023-04-26T01:13:30;100542.22;;;5.54;88.07
18533;BME280;9396;51.510;11.934;2023-04-26T01:15:57;100543.19;;;5.53;87.82
18533;BME280;9396;51.510;11.934;2023-04-26T01:18:26;100539.22;;;5.70;87.88
18533;BME280;9396;51.510;11.934;2023-04-26T01:20:53;100546.19;;;5.60;87.78
18533;BME280;9396;51.510;11.934;2023-04-26T01:23:22;100543.53;;;5.48;87.55
18533;BME280;9396;51.510;11.934;2023-04-26T01:25:49;100534.16;;;5.56;87.71
18533;BME280;9396;51.510;11.934;2023-04-26T01:28:15;100537.31;;;5.61;87.44
18533;BME280;9396;51.510;11.934;2023-04-26T01:30:42;100541.59;;;5.51;87.60
18533;BME280;9396;51.510;11.934;2023-04-26T01:33:09;100537.63;;;5.45;87.50
18533;BME280;9396;51.510;11.934;2023-04-26T01:35:35;100554.91;;;5.49;87.32
18533;BME280;9396;51.510;11.934;2023-04-26T01:38:02;100543.53;;;5.37;87.76
18533;BME280;9396;51.510;11.934;2023-04-26T01:40:30;100541.22;;;5.33;88.57
18533;BME280;9396;51.510;11.934;2023-04-26T01:42:56;100541.47;;;5.30;88.26
18533;BME280;9396;51.510;11.934;2023-04-26T01:45:23;100545.44;;;5.35;88.05
18533;BME280;9396;51.510;11.934;2023-04-26T01:47:50;100548.44;;;5.42;88.07
18533;BME280;9396;51.510;11.934;2023-04-26T01:50:17;100549.50;;;5.28;87.91
18533;BME280;9396;51.510;11.934;2023-04-26T01:52:43;100547.78;;;5.16;89.39
18533;BME280;9396;51.510;11.934;2023-04-26T01:55:10;100549.91;;;5.11;89.12
18533;BME280;9396;51.510;11.934;2023-04-26T01:57:38;100551.69;;;5.11;88.95
18533;BME280;9396;51.510;11.934;2023-04-26T02:00:06;100549.34;;;5.19;88.67
18533;BME280;9396;51.510;11.934;2023-04-26T02:02:33;100546.16;;;5.37;88.10
18533;BME280;9396;51.510;11.934;2023-04-26T02:04:59;100544.00;;;5.54;87.84
18533;BME280;9396;51.510;11.934;2023-04-26T02:07:26;100547.50;;;5.65;87.47
18533;BME280;9396;51.510;11.934;2023-04-26T02:09:53;100541.75;;;5.71;87.56
18533;BME280;9396;51.510;11.934;2023-04-26T02:12:19;100545.47;;;5.80;86.77
18533;BME280;9396;51.510;11.934;2023-04-26T02:14:47;100546.41;;;5.79;86.16
18533;BME280;9396;51.510;11.934;2023-04-26T02:17:14;100552.91;;;5.64;85.93
18533;BME280;9396;51.510;11.934;2023-04-26T02:19:41;100553.00;;;5.51;86.72
18533;BME280;9396;51.510;11.934;2023-04-26T02:22:08;100554.22;;;5.58;86.41
18533;BME280;9396;51.510;11.934;2023-04-26T02:24:34;100556.13;;;5.56;86.74
18533;BME280;9396;51.510;11.934;2023-04-26T02:27:01;100559.94;;;5.52;86.42
18533;BME280;9396;51.510;11.934;2023-04-26T02:29:29;100557.31;;;5.41;86.42
18533;BME280;9396;51.510;11.934;2023-04-26T02:31:57;100547.22;;;5.35;86.50
18533;BME280;9396;51.510;11.934;2023-04-26T02:34:24;100554.53;;;5.31;86.84
18533;BME280;9396;51.510;11.934;2023-04-26T02:36:51;100557.53;;;5.38;86.94
18533;BME280;9396;51.510;11.934;2023-04-26T02:39:17;100551.66;;;5.34;87.09
18533;BME280;9396;51.510;11.934;2023-04-26T02:41:45;100557.91;;;5.33;87.06
18533;BME280;9396;51.510;11.934;2023-04-26T02:44:12;100558.47;;;5.26;87.21
18533;BME280;9396;51.510;11.934;2023-04-26T02:46:38;100555.84;;;5.26;87.64
18533;BME280;9396;51.510;11.934;2023-04-26T02:49:06;100549.78;;;5.02;88.51
18533;BME280;9396;51.510;11.934;2023-04-26T02:51:33;100554.66;;;4.95;89.08
18533;BME280;9396;51.510;11.934;2023-04-26T02:53:59;100553.00;;;4.94;89.41
18533;BME280;9396;51.510;11.934;2023-04-26T02:56:27;100550.91;;;4.87;89.71
18533;BME280;9396;51.510;11.934;2023-04-26T02:58:54;100546.25;;;4.90;89.57
18533;BME280;9396;51.510;11.934;2023-04-26T03:01:20;100551.41;;;4.57;89.63
18533;BME280;9396;51.510;11.934;2023-04-26T03:03:47;100551.78;;;4.64;90.00
18533;BME280;9396;51.510;11.934;2023-04-26T03:06:15;100549.59;;;4.58;89.94
18533;BME280;9396;51.510;11.934;2023-04-26T03:08:41;100545.03;;;4.60;90.40
18533;BME280;9396;51.510;11.934;2023-04-26T03:11:08;100541.75;;;4.69;90.06
18533;BME280;9396;51.510;11.934;2023-04-26T03:13:35;100544.31;;;4.81;89.23
18533;BME280;9396;51.510;11.934;2023-04-26T03:16:02;100549.88;;;4.66;89.21
18533;BME280;9396;51.510;11.934;2023-04-26T03:18:29;100554.59;;;4.73;89.07
18533;BME280;9396;51.510;11.934;2023-04-26T03:20:55;100555.19;;;4.77;89.19
18533;BME280;9396;51.510;11.934;2023-04-26T03:23:23;100551.00;;;4.74;88.92
18533;BME280;9396;51.510;11.934;2023-04-26T03:25:51;100558.78;;;4.76;88.49
18533;BME280;9396;51.510;11.934;2023-04-26T03:28:17;100552.44;;;4.78;88.21
18533;BME280;9396;51.510;11.934;2023-04-26T03:30:44;100560.50;;;4.41;88.72
18533;BME280;9396;51.510;11.934;2023-04-26T03:33:11;100553.19;;;4.57;89.20
18533;BME280;9396;51.510;11.934;2023-04-26T03:35:38;100563.47;;;4.60;89.59
18533;BME280;9396;51.510;11.934;2023-04-26T03:38:05;100563.34;;;4.50;89.06
18533;BME280;9396;51.510;11.934;2023-04-26T03:40:33;100567.97;;;4.47;89.33
18533;BME280;9396;51.510;11.934;2023-04-26T03:42:59;100570.88;;;4.55;89.98
18533;BME280;9396;51.510;11.934;2023-04-26T03:45:26;100563.22;;;4.75;89.33
18533;BME280;9396;51.510;11.934;2023-04-26T03:47:53;100564.16;;;4.51;88.43
18533;BME280;9396;51.510;11.934;2023-04-26T03:50:20;100569.41;;;4.51;89.30
18533;BME280;9396;51.510;11.934;2023-04-26T03:52:47;100565.56;;;4.67;89.39
18533;BME280;9396;51.510;11.934;2023-04-26T03:55:14;100566.28;;;4.69;89.79
18533;BME280;9396;51.510;11.934;2023-04-26T03:57:42;100574.19;;;4.46;89.27
18533;BME280;9396;51.510;11.934;2023-04-26T04:00:10;100566.59;;;4.54;90.62
18533;BME280;9396;51.510;11.934;2023-04-26T04:02:38;100556.06;;;4.54;89.88
18533;BME280;9396;51.510;11.934;2023-04-26T04:05:05;100569.16;;;4.66;90.33
18533;BME280;9396;51.510;11.934;2023-04-26T04:07:32;100563.03;;;4.89;89.94
18533;BME280;9396;51.510;11.934;2023-04-26T04:09:59;100564.16;;;4.98;89.22
18533;BME280;9396;51.510;11.934;2023-04-26T04:12:25;100567.63;;;4.98;88.50
18533;BME280;9396;51.510;11.934;2023-04-26T04:14:53;100567.88;;;5.06;88.43
18533;BME280;9396;51.510;11.934;2023-04-26T04:17:20;100568.16;;;5.14;88.32
18533;BME280;9396;51.510;11.934;2023-04-26T04:19:47;100573.06;;;5.19;88.45
18533;BME280;9396;51.510;11.934;2023-04-26T04:22:13;100569.84;;;4.92;87.98
18533;BME280;9396;51.510;11.934;2023-04-26T04:24:40;100577.19;;;4.99;88.25
18533;BME280;9396;51.510;11.934;2023-04-26T04:27:08;100574.81;;;4.96;88.43
18533;BME280;9396;51.510;11.934;2023-04-26T04:29:35;100574.38;;;4.79;88.86
18533;BME280;9396;51.510;11.934;2023-04-26T04:32:04;100575.66;;;4.73;89.79
18533;BME280;9396;51.510;11.934;2023-04-26T04:34:33;100580.34;;;4.81;89.55
18533;BME280;9396;51.510;11.934;2023-04-26T04:37:00;100585.47;;;4.95;89.28
18533;BME280;9396;51.510;11.934;2023-04-26T04:39:26;100582.31;;;4.90;89.49
18533;BME280;9396;51.510;11.934;2023-04-26T04:41:53;100576.09;;;4.91;89.77
18533;BME280;9396;51.510;11.934;2023-04-26T04:44:20;100585.91;;;4.89;89.44
18533;BME280;9396;51.510;11.934;2023-04-26T04:46:48;100592.22;;;4.86;89.25
18533;BME280;9396;51.510;11.934;2023-04-26T04:49:16;100587.19;;;4.83;90.00
18533;BME280;9396;51.510;11.934;2023-04-26T04:51:43;100592.91;;;4.77;89.91
18533;BME280;9396;51.510;11.934;2023-04-26T04:54:10;100594.66;;;4.89;89.96
18533;BME280;9396;51.510;11.934;2023-04-26T04:56:37;100598.22;;;4.88;90.15
18533;BME280;9396;51.510;11.934;2023-04-26T04:59:04;100603.25;;;4.80;90.18
18533;BME280;9396;51.510;11.934;2023-04-26T05:01:31;100604.00;;;4.46;91.29
18533;BME280;9396;51.510;11.934;2023-04-26T05:03:57;100603.78;;;4.49;91.48
18533;BME280;9396;51.510;11.934;2023-04-26T05:06:26;100609.53;;;4.30;92.25
18533;BME280;9396;51.510;11.934;2023-04-26T05:08:53;100607.41;;;4.35;93.03
18533;BME280;9396;51.510;11.934;2023-04-26T05:11:19;100608.88;;;4.40;92.46
18533;BME280;9396;51.510;11.934;2023-04-26T05:13:47;100598.03;;;4.68;92.16
18533;BME280;9396;51.510;11.934;2023-04-26T05:16:14;100607.84;;;4.66;91.94
18533;BME280;9396;51.510;11.934;2023-04-26T05:18:40;100607.94;;;4.88;91.92
18533;BME280;9396;51.510;11.934;2023-04-26T05:21:07;100611.56;;;5.21;91.09
18533;BME280;9396;51.510;11.934;2023-04-26T05:23:35;100613.25;;;5.22;90.68
18533;BME280;9396;51.510;11.934;2023-04-26T05:26:02;100614.53;;;5.17;90.51
18533;BME280;9396;51.510;11.934;2023-04-26T05:28:30;100606.91;;;5.36;90.04
18533;BME280;9396;51.510;11.934;2023-04-26T05:30:57;100612.00;;;5.61;88.95
18533;BME280;9396;51.510;11.934;2023-04-26T05:33:23;100607.53;;;6.07;88.35
18533;BME280;9396;51.510;11.934;2023-04-26T05:35:50;100609.22;;;6.19;86.67
18533;BME280;9396;51.510;11.934;2023-04-26T05:38:18;100614.59;;;6.29;86.75
18533;BME280;9396;51.510;11.934;2023-04-26T05:40:46;100611.81;;;6.53;86.18
18533;BME280;9396;51.510;11.934;2023-04-26T05:43:13;100615.34;;;7.16;84.87
18533;BME280;9396;51.510;11.934;2023-04-26T05:45:40;100606.19;;;8.42;82.35
18533;BME280;9396;51.510;11.934;2023-04-26T05:48:15;100601.53;;;9.32;77.50
18533;BME280;9396;51.510;11.934;2023-04-26T05:50:41;100604.66;;;9.83;77.31
18533;BME280;9396;51.510;11.934;2023-04-26T05:53:08;100612.84;;;10.45;73.03
18533;BME280;9396;51.510;11.934;2023-04-26T05:55:35;100609.31;;;11.77;71.42
18533;BME280;9396;51.510;11.934;2023-04-26T05:58:03;100614.44;;;11.71;69.15
18533;BME280;9396;51.510;11.934;2023-04-26T06:00:30;100610.44;;;13.42;66.50
18533;BME280;9396;51.510;11.934;2023-04-26T06:02:57;100600.91;;;13.55;65.22
18533;BME280;9396;51.510;11.934;2023-04-26T06:05:24;100506.53;;;12.58;64.45
18533;BME280;9396;51.510;11.934;2023-04-26T06:07:51;100608.38;;;12.46;66.98
18533;BME280;9396;51.510;11.934;2023-04-26T06:10:18;100607.22;;;13.78;65.03
18533;BME280;9396;51.510;11.934;2023-04-26T06:12:45;100603.47;;;14.20;64.07
18533;BME280;9396;51.510;11.934;2023-04-26T06:15:14;100610.41;;;13.10;65.08
18533;BME280;9396;51.510;11.934;2023-04-26T06:17:40;100596.53;;;13.78;66.12
18533;BME280;9396;51.510;11.934;2023-04-26T06:20:07;100595.56;;;13.55;65.44
18533;BME280;9396;51.510;11.934;2023-04-26T06:22:34;100592.13;;;15.77;61.37
18533;BME280;9396;51.510;11.934;2023-04-26T06:25:03;100594.94;;;16.13;59.57
18533;BME280;9396;51.510;11.934;2023-04-26T06:27:30;100595.19;;;16.76;58.22
18533;BME280;9396;51.510;11.934;2023-04-26T06:29:56;100547.06;;;16.60;57.88
18533;BME280;9396;51.510;11.934;2023-04-26T06:32:25;100599.28;;;16.72;58.00
18533;BME280;9396;51.510;11.934;2023-04-26T06:34:52;100598.81;;;15.36;59.54
18533;BME280;9396;51.510;11.934;2023-04-26T06:37:19;100600.72;;;15.73;59.67
18533;BME280;9396;51.510;11.934;2023-04-26T06:39:45;100607.81;;;14.67;60.88
18533;BME280;9396;51.510;11.934;2023-04-26T06:42:12;100608.69;;;14.90;61.70
18533;BME280;9396;51.510;11.934;2023-04-26T06:44:39;100603.38;;;13.89;62.09
18533;BME280;9396;51.510;11.934;2023-04-26T06:47:05;100602.31;;;15.82;61.85
18533;BME280;9396;51.510;11.934;2023-04-26T06:49:35;100601.97;;;15.99;58.71
18533;BME280;9396;51.510;11.934;2023-04-26T06:52:02;100602.28;;;15.67;58.79
18533;BME280;9396;51.510;11.934;2023-04-26T06:54:31;100610.63;;;15.04;58.80
18533;BME280;9396;51.510;11.934;2023-04-26T06:56:58;100615.47;;;14.78;60.73
18533;BME280;9396;51.510;11.934;2023-04-26T06:59:25;100615.94;;;15.58;61.21
18533;BME280;9396;51.510;11.934;2023-04-26T07:01:51;100605.50;;;15.63;60.11
18533;BME280;9396;51.510;11.934;2023-04-26T07:04:18;100597.13;;;16.82;59.72
18533;BME280;9396;51.510;11.934;2023-04-26T07:06:46;100605.97;;;16.47;57.78
18533;BME280;9396;51.510;11.934;2023-04-26T07:09:13;100606.53;;;15.62;60.39
18533;BME280;9396;51.510;11.934;2023-04-26T07:11:39;100618.16;;;15.01;67.09
18533;BME280;9396;51.510;11.934;2023-04-26T07:14:06;100600.19;;;16.79;65.12
18533;BME280;9396;51.510;11.934;2023-04-26T07:16:32;100606.59;;;17.35;63.63
18533;BME280;9396;51.510;11.934;2023-04-26T07:18:59;100608.19;;;17.72;64.01
18533;BME280;9396;51.510;11.934;2023-04-26T07:21:26;100603.19;;;17.69;63.61
18533;BME280;9396;51.510;11.934;2023-04-26T07:23:54;100610.00;;;16.87;63.00
18533;BME280;9396;51.510;11.934;2023-04-26T07:26:21;100607.09;;;16.53;64.17
18533;BME280;9396;51.510;11.934;2023-04-26T07:28:49;100606.25;;;16.08;62.69
18533;BME280;9396;51.510;11.934;2023-04-26T07:31:16;100616.97;;;15.34;61.51
18533;BME280;9396;51.510;11.934;2023-04-26T07:33:43;100614.63;;;14.78;62.23
18533;BME280;9396;51.510;11.934;2023-04-26T07:36:09;100617.28;;;14.47;61.96
18533;BME280;9396;51.510;11.934;2023-04-26T07:38:36;100613.75;;;13.84;64.95
18533;BME280;9396;51.510;11.934;2023-04-26T07:41:04;100626.94;;;13.21;66.15
18533;BME280;9396;51.510;11.934;2023-04-26T07:43:31;100626.81;;;12.06;67.35
18533;BME280;9396;51.510;11.934;2023-04-26T07:45:58;100633.75;;;11.91;67.87
18533;BME280;9396;51.510;11.934;2023-04-26T07:48:26;100640.94;;;11.72;69.81
18533;BME280;9396;51.510;11.934;2023-04-26T07:50:52;100633.34;;;11.42;68.68
18533;BME280;9396;51.510;11.934;2023-04-26T07:53:19;100639.75;;;11.32;70.36
18533;BME280;9396;51.510;11.934;2023-04-26T07:55:46;100644.47;;;10.93;70.81
18533;BME280;9396;51.510;11.934;2023-04-26T07:58:14;100642.22;;;10.53;72.84
18533;BME280;9396;51.510;11.934;2023-04-26T08:00:41;100641.38;;;10.80;70.95
18533;BME280;9396;51.510;11.934;2023-04-26T08:03:07;100634.84;;;11.27;71.69
18533;BME280;9396;51.510;11.934;2023-04-26T08:05:34;100635.53;;;11.12;72.93
18533;BME280;9396;51.510;11.934;2023-04-26T08:08:00;100643.22;;;11.32;70.79
18533;BME280;9396;51.510;11.934;2023-04-26T08:10:27;100641.25;;;11.34;69.71
18533;BME280;9396;51.510;11.934;2023-04-26T08:12:54;100640.38;;;10.99;71.38
18533;BME280;9396;51.510;11.934;2023-04-26T08:15:23;100635.22;;;11.15;69.61
18533;BME280;9396;51.510;11.934;2023-04-26T08:17:49;100643.81;;;10.91;69.66
18533;BME280;9396;51.510;11.934;2023-04-26T08:20:17;100644.72;;;10.55;70.39
18533;BME280;9396;51.510;11.934;2023-04-26T08:22:45;100650.78;;;10.47;71.76
18533;BME280;9396;51.510;11.934;2023-04-26T08:25:11;100644.72;;;10.55;72.16
18533;BME280;9396;51.510;11.934;2023-04-26T08:27:38;100647.47;;;10.36;73.72
18533;BME280;9396;51.510;11.934;2023-04-26T08:30:06;100650.94;;;10.09;71.50
18533;BME280;9396;51.510;11.934;2023-04-26T08:32:34;100648.22;;;10.19;72.12
18533;BME280;9396;51.510;11.934;2023-04-26T08:35:01;100639.13;;;10.21;72.54
18533;BME280;9396;51.510;11.934;2023-04-26T08:37:27;100639.56;;;10.53;70.94
18533;BME280;9396;51.510;11.934;2023-04-26T08:39:54;100649.31;;;10.62;72.02
18533;BME280;9396;51.510;11.934;2023-04-26T08:42:25;100637.50;;;10.11;71.90
18533;BME280;9396;51.510;11.934;2023-04-26T08:44:53;100655.53;;;9.88;72.45
18533;BME280;9396;51.510;11.934;2023-04-26T08:47:23;100650.28;;;9.69;74.30
18533;BME280;9396;51.510;11.934;2023-04-26T08:49:55;100649.00;;;9.73;74.66
18533;BME280;9396;51.510;11.934;2023-04-26T08:52:27;100644.53;;;10.39;75.17
18533;BME280;9396;51.510;11.934;2023-04-26T08:54:56;100634.09;;;11.00;73.24
18533;BME280;9396;51.510;11.934;2023-04-26T08:57:23;100637.88;;;11.32;74.59
18533;BME280;9396;51.510;11.934;2023-04-26T08:59:50;100640.00;;;10.94;70.42
18533;BME280;9396;51.510;11.934;2023-04-26T09:02:18;100648.97;;;10.48;70.62
18533;BME280;9396;51.510;11.934;2023-04-26T09:04:46;100651.84;;;10.54;76.51
18533;BME280;9396;51.510;11.934;2023-04-26T09:07:18;100647.69;;;10.52;71.49
18533;BME280;9396;51.510;11.934;2023-04-26T09:09:48;100649.22;;;10.18;72.18
18533;BME280;9396;51.510;11.934;2023-04-26T09:12:17;100651.78;;;9.91;72.41
18533;BME280;9396;51.510;11.934;2023-04-26T09:14:45;100647.22;;;9.73;72.98
18533;BME280;9396;51.510;11.934;2023-04-26T09:17:28;100638.34;;;9.83;75.22
18533;BME280;9396;51.510;11.934;2023-04-26T09:19:56;100641.09;;;10.19;73.19
18533;BME280;9396;51.510;11.934;2023-04-26T09:22:32;100640.38;;;10.99;79.32
18533;BME280;9396;51.510;11.934;2023-04-26T09:25:00;100628.16;;;11.41;77.10
18533;BME280;9396;51.510;11.934;2023-04-26T09:27:33;100638.72;;;11.50;73.02
18533;BME280;9396;51.510;11.934;2023-04-26T09:30:04;100639.31;;;11.62;74.88
18533;BME280;9396;51.510;11.934;2023-04-26T09:32:45;100644.75;;;11.17;69.13
18533;BME280;9396;51.510;11.934;2023-04-26T09:35:24;100652.06;;;11.15;71.21
18533;BME280;9396;51.510;11.934;2023-04-26T09:37:54;100650.84;;;10.82;70.12
18533;BME280;9396;51.510;11.934;2023-04-26T09:40:21;100657.91;;;10.74;72.15
18533;BME280;9396;51.510;11.934;2023-04-26T09:42:59;100656.91;;;11.02;72.18
18533;BME280;9396;51.510;11.934;2023-04-26T09:45:26;100648.16;;;11.10;72.30
18533;BME280;9396;51.510;11.934;2023-04-26T09:47:53;100652.91;;;11.16;71.91
18533;BME280;9396;51.510;11.934;2023-04-26T09:50:28;100656.84;;;11.12;72.21
18533;BME280;9396;51.510;11.934;2023-04-26T09:52:56;100671.56;;;10.89;71.60
18533;BME280;9396;51.510;11.934;2023-04-26T09:55:27;100664.50;;;10.97;69.39
18533;BME280;9396;51.510;11.934;2023-04-26T09:57:55;100661.75;;;10.89;66.65
18533;BME280;9396;51.510;11.934;2023-04-26T10:00:23;100656.13;;;10.65;68.23
18533;BME280;9396;51.510;11.934;2023-04-26T10:02:51;100672.00;;;10.84;68.86
18533;BME280;9396;51.510;11.934;2023-04-26T10:05:18;100666.63;;;10.66;68.21
18533;BME280;9396;51.510;11.934;2023-04-26T10:07:46;100659.69;;;10.19;68.41
18533;BME280;9396;51.510;11.934;2023-04-26T10:10:14;100584.56;;;10.08;68.26
18533;BME280;9396;51.510;11.934;2023-04-26T10:12:42;100658.25;;;10.61;65.93
18533;BME280;9396;51.510;11.934;2023-04-26T10:15:10;100659.94;;;10.62;66.80
18533;BME280;9396;51.510;11.934;2023-04-26T10:17:37;100652.78;;;10.63;68.34
18533;BME280;9396;51.510;11.934;2023-04-26T10:20:08;100640.09;;;11.02;70.13
18533;BME280;9396;51.510;11.934;2023-04-26T10:22:39;100645.75;;;11.34;66.35
18533;BME280;9396;51.510;11.934;2023-04-26T10:25:08;100641.56;;;11.31;65.33
18533;BME280;9396;51.510;11.934;2023-04-26T10:27:52;100634.41;;;11.67;63.73
18533;BME280;9396;51.510;11.934;2023-04-26T10:30:22;100635.66;;;11.63;60.37
18533;BME280;9396;51.510;11.934;2023-04-26T10:33:15;100642.53;;;11.48;62.31
18533;BME280;9396;51.510;11.934;2023-04-26T10:36:09;100646.63;;;11.60;60.66
18533;BME280;9396;51.510;11.934;2023-04-26T10:38:38;100633.72;;;11.65;61.82
18533;BME280;9396;51.510;11.934;2023-04-26T10:41:33;100642.25;;;11.33;61.37
18533;BME280;9396;51.510;11.934;2023-04-26T10:47:01;100664.09;;;10.74;68.43
18533;BME280;9396;51.510;11.934;2023-04-26T10:49:42;100657.84;;;10.29;73.54
18533;BME280;9396;51.510;11.934;2023-04-26T10:52:11;100647.69;;;10.15;74.72
18533;BME280;9396;51.510;11.934;2023-04-26T10:54:55;100662.66;;;10.16;76.75
18533;BME280;9396;51.510;11.934;2023-04-26T10:57:23;100664.91;;;10.02;75.82
18533;BME280;9396;51.510;11.934;2023-04-26T11:00:29;100651.75;;;10.10;78.18
18533;BME280;9396;51.510;11.934;2023-04-26T11:03:01;100656.53;;;9.97;75.52
18533;BME280;9396;51.510;11.934;2023-04-26T11:05:35;100648.94;;;10.11;75.37
18533;BME280;9396;51.510;11.934;2023-04-26T11:08:04;100649.78;;;10.02;73.63
18533;BME280;9396;51.510;11.934;2023-04-26T11:10:31;100647.19;;;10.29;70.73
18533;BME280;9396;51.510;11.934;2023-04-26T11:13:00;100640.22;;;10.28;70.54
18533;BME280;9396;51.510;11.934;2023-04-26T11:15:28;100636.00;;;10.35;73.04
18533;BME280;9396;51.510;11.934;2023-04-26T11:17:54;100636.75;;;10.55;70.95
18533;BME280;9396;51.510;11.934;2023-04-26T11:20:27;100629.16;;;11.05;71.03
18533;BME280;9396;51.510;11.934;2023-04-26T11:22:54;100632.28;;;11.18;68.95
18533;BME280;9396;51.510;11.934;2023-04-26T11:25:23;100634.94;;;11.18;73.21
18533;BME280;9396;51.510;11.934;2023-04-26T11:27:50;100633.19;;;11.44;71.26
18533;BME280;9396;51.510;11.934;2023-04-26T11:30:17;100633.63;;;11.22;69.96
18533;BME280;9396;51.510;11.934;2023-04-26T11:32:45;100637.81;;;11.07;68.14
18533;BME280;9396;51.510;11.934;2023-04-26T11:35:12;100643.34;;;10.96;69.19
18533;BME280;9396;51.510;11.934;2023-04-26T11:37:39;100645.19;;;10.95;69.97
18533;BME280;9396;51.510;11.934;2023-04-26T11:40:09;100646.19;;;10.94;69.03
18533;BME280;9396;51.510;11.934;2023-04-26T11:42:36;100636.06;;;11.15;68.98
18533;BME280;9396;51.510;11.934;2023-04-26T11:45:04;100634.16;;;11.25;70.32
18533;BME280;9396;51.510;11.934;2023-04-26T11:47:32;100633.78;;;11.38;65.84
18533;BME280;9396;51.510;11.934;2023-04-26T11:50:00;100635.16;;;11.42;71.18
18533;BME280;9396;51.510;11.934;2023-04-26T11:52:27;100632.44;;;11.34;68.04
18533;BME280;9396;51.510;11.934;2023-04-26T11:55:03;100638.50;;;11.09;64.13
18533;BME280;9396;51.510;11.934;2023-04-26T11:57:30;100624.50;;;11.24;68.58
18533;BME280;9396;51.510;11.934;2023-04-26T12:00:13;100632.81;;;11.21;68.13
18533;BME280;9396;51.510;11.934;2023-04-26T12:02:43;100636.13;;;11.23;66.22
18533;BME280;9396;51.510;11.934;2023-04-26T12:05:10;100639.13;;;11.20;65.49
18533;BME280;9396;51.510;11.934;2023-04-26T12:07:38;100630.97;;;11.22;64.50
18533;BME280;9396;51.510;11.934;2023-04-26T12:10:16;100629.00;;;11.24;66.52
18533;BME280;9396;51.510;11.934;2023-04-26T12:12:44;100640.16;;;11.45;71.69
18533;BME280;9396;51.510;11.934;2023-04-26T12:15:13;100627.97;;;11.60;65.60
18533;BME280;9396;51.510;11.934;2023-04-26T12:17:39;100629.97;;;11.58;61.72
18533;BME280;9396;51.510;11.934;2023-04-26T12:20:10;100629.97;;;11.40;61.46
18533;BME280;9396;51.510;11.934;2023-04-26T12:22:37;100626.63;;;11.56;61.26
18533;BME280;9396;51.510;11.934;2023-04-26T12:25:04;100632.19;;;11.27;63.66
18533;BME280;9396;51.510;11.934;2023-04-26T12:27:33;100637.22;;;11.48;62.60
18533;BME280;9396;51.510;11.934;2023-04-26T12:29:59;100635.22;;;11.50;66.42
18533;BME280;9396;51.510;11.934;2023-04-26T12:32:26;100636.81;;;11.08;63.24
18533;BME280;9396;51.510;11.934;2023-04-26T12:34:53;100647.41;;;11.00;62.88
18533;BME280;9396;51.510;11.934;2023-04-26T12:37:20;100644.22;;;10.96;65.27
18533;BME280;9396;51.510;11.934;2023-04-26T12:39:47;100637.88;;;10.97;65.92
18533;BME280;9396;51.510;11.934;2023-04-26T12:42:14;100646.72;;;10.98;65.43
18533;BME280;9396;51.510;11.934;2023-04-26T12:44:42;100640.88;;;11.12;63.82
18533;BME280;9396;51.510;11.934;2023-04-26T12:47:09;100643.38;;;11.31;64.25
18533;BME280;9396;51.510;11.934;2023-04-26T12:49:35;100649.53;;;11.14;63.97
18533;BME280;9396;51.510;11.934;2023-04-26T12:52:02;100654.66;;;11.25;64.44
18533;BME280;9396;51.510;11.934;2023-04-26T12:54:28;100644.44;;;11.20;65.23
18533;BME280;9396;51.510;11.934;2023-04-26T12:56:55;100643.22;;;11.15;64.26
18533;BME280;9396;51.510;11.934;2023-04-26T12:59:22;100642.84;;;11.10;66.56
18533;BME280;9396;51.510;11.934;2023-04-26T13:01:50;100646.78;;;11.06;66.73
18533;BME280;9396;51.510;11.934;2023-04-26T13:04:17;100648.69;;;10.96;66.03